createdAt,value
2023-05-14T00:01:26.642Z,14.84
2023-05-14T00:03:56.783Z,14.87
2023-05-14T00:06:29.378Z,14.84
2023-05-14T00:08:59.374Z,14.90
2023-05-14T00:11:29.438Z,14.93
2023-05-14T00:13:59.378Z,14.88
2023-05-14T00:16:29.497Z,14.87
2023-05-14T00:18:59.515Z,14.97
2023-05-14T00:21:32.087Z,14.81
2023-05-14T00:24:02.018Z,14.86
2023-05-14T00:26:31.997Z,14.82
2023-05-14T00:29:01.972Z,14.65
2023-05-14T00:31:31.964Z,14.77
2023-05-14T00:34:01.948Z,14.76
2023-05-14T00:36:34.619Z,14.71
2023-05-14T00:39:04.800Z,14.77
2023-05-14T00:41:34.792Z,14.84
2023-05-14T00:44:05.046Z,14.86
2023-05-14T00:46:35.205Z,14.77
2023-05-14T00:49:05.579Z,14.67
2023-05-14T00:51:38.293Z,14.72
2023-05-14T00:54:09.183Z,14.63
2023-05-14T00:56:39.533Z,14.76
2023-05-14T00:59:09.626Z,14.64
2023-05-14T01:01:40.181Z,14.65
2023-05-14T01:04:12.285Z,14.76
2023-05-14T01:06:57.027Z,14.63
2023-05-14T01:09:34.718Z,14.60
2023-05-14T01:12:11.618Z,14.53
2023-05-14T01:14:52.252Z,14.49
2023-05-14T01:17:25.790Z,14.61
2023-05-14T01:19:58.288Z,14.55
2023-05-14T01:22:31.371Z,14.59
2023-05-14T01:25:01.300Z,14.55
2023-05-14T01:27:38.726Z,14.57
2023-05-14T01:30:16.745Z,14.47
2023-05-14T01:32:51.238Z,14.56
2023-05-14T01:35:21.820Z,14.58
2023-05-14T01:37:58.160Z,14.52
2023-05-14T01:40:28.972Z,14.50
2023-05-14T01:43:00.347Z,14.32
2023-05-14T01:45:30.360Z,14.29
2023-05-14T01:48:01.027Z,14.33
2023-05-14T01:50:31.055Z,14.33
2023-05-14T01:53:03.573Z,14.27
2023-05-14T01:55:33.509Z,14.29
2023-05-14T01:58:03.631Z,14.31
2023-05-14T02:00:33.647Z,14.28
2023-05-14T02:03:03.729Z,14.16
2023-05-14T02:05:34.011Z,14.16
2023-05-14T02:08:06.849Z,14.12
2023-05-14T02:10:36.808Z,14.10
2023-05-14T02:13:06.834Z,13.97
2023-05-14T02:15:36.802Z,13.93
2023-05-14T02:18:06.964Z,13.81
2023-05-14T02:20:36.914Z,13.83
2023-05-14T02:23:09.683Z,13.74
2023-05-14T02:25:39.686Z,13.76
2023-05-14T02:28:09.824Z,13.66
2023-05-14T02:30:40.249Z,13.63
2023-05-14T02:33:10.366Z,13.58
2023-05-14T02:35:40.355Z,13.52
2023-05-14T02:38:12.849Z,13.53
2023-05-14T02:40:42.818Z,13.55
2023-05-14T02:43:12.760Z,13.64
2023-05-14T02:45:43.125Z,13.57
2023-05-14T02:48:13.190Z,13.53
2023-05-14T02:50:43.151Z,13.54
2023-05-14T02:53:15.747Z,13.58
2023-05-14T02:55:45.628Z,13.60
2023-05-14T02:58:15.608Z,13.65
2023-05-14T03:00:45.738Z,13.70
2023-05-14T03:03:16.327Z,13.75
2023-05-14T03:05:46.356Z,13.68
2023-05-14T03:08:19.169Z,13.72
2023-05-14T03:10:49.192Z,13.84
2023-05-14T03:13:20.903Z,13.73
2023-05-14T03:15:55.077Z,13.76
2023-05-14T03:18:25.653Z,13.70
2023-05-14T03:20:55.604Z,13.71
2023-05-14T03:23:28.300Z,13.73
2023-05-14T03:25:58.268Z,13.67
2023-05-14T03:28:28.257Z,13.71
2023-05-14T03:30:58.383Z,13.61
2023-05-14T03:33:28.462Z,13.63
2023-05-14T03:35:58.405Z,13.53
2023-05-14T03:38:30.962Z,13.51
2023-05-14T03:41:00.952Z,13.53
2023-05-14T03:43:30.944Z,13.53
2023-05-14T03:46:00.928Z,13.42
2023-05-14T03:48:31.136Z,13.48
2023-05-14T03:51:01.322Z,13.46
2023-05-14T03:53:34.235Z,13.29
2023-05-14T03:56:04.171Z,13.14
2023-05-14T03:58:34.064Z,13.05
2023-05-14T04:01:04.181Z,13.08
2023-05-14T04:03:34.406Z,13.08
2023-05-14T04:06:04.762Z,13.15
2023-05-14T04:08:37.308Z,13.14
2023-05-14T04:11:07.318Z,13.05
2023-05-14T04:13:37.322Z,13.07
2023-05-14T04:16:07.991Z,13.06
2023-05-14T04:18:38.611Z,13.06
2023-05-14T04:21:08.766Z,13.15
2023-05-14T04:23:41.298Z,12.99
2023-05-14T04:26:11.201Z,12.96
2023-05-14T04:28:41.083Z,12.97
2023-05-14T04:31:11.026Z,12.98
2023-05-14T04:33:41.126Z,12.94
2023-05-14T04:36:11.588Z,12.96
2023-05-14T04:38:44.101Z,12.94
2023-05-14T04:41:13.985Z,13.04
2023-05-14T04:43:43.895Z,13.05
2023-05-14T04:46:14.090Z,12.98
2023-05-14T04:48:44.036Z,12.96
2023-05-14T04:51:13.969Z,12.92
2023-05-14T04:53:46.616Z,12.92
2023-05-14T04:56:16.558Z,12.96
2023-05-14T04:58:46.581Z,13.08
2023-05-14T05:01:16.682Z,12.97
2023-05-14T05:03:46.649Z,12.93
2023-05-14T05:06:16.692Z,13.04
2023-05-14T05:08:49.270Z,12.99
2023-05-14T05:11:19.142Z,13.12
2023-05-14T05:13:49.079Z,13.21
2023-05-14T05:16:19.172Z,13.27
2023-05-14T05:18:49.193Z,13.20
2023-05-14T05:21:19.172Z,13.29
2023-05-14T05:23:51.843Z,13.28
2023-05-14T05:26:22.226Z,13.12
2023-05-14T05:28:52.216Z,13.27
2023-05-14T05:31:22.370Z,13.33
2023-05-14T05:33:52.357Z,13.27
2023-05-14T05:36:22.216Z,13.50
2023-05-14T05:38:54.672Z,13.55
2023-05-14T05:41:24.967Z,13.59
2023-05-14T05:43:54.976Z,13.61
2023-05-14T05:46:25.081Z,13.72
2023-05-14T05:48:55.758Z,13.74
2023-05-14T05:51:25.824Z,13.77
2023-05-14T05:53:58.385Z,13.85
2023-05-14T05:56:28.337Z,13.86
2023-05-14T05:58:58.361Z,13.99
2023-05-14T06:01:28.651Z,14.04
2023-05-14T06:03:58.799Z,14.12
2023-05-14T06:06:28.759Z,14.08
2023-05-14T06:09:02.094Z,14.07
2023-05-14T06:11:32.054Z,14.09
2023-05-14T06:14:02.068Z,14.15
2023-05-14T06:16:32.098Z,14.22
2023-05-14T06:19:05.038Z,14.40
2023-05-14T06:21:35.305Z,14.46
2023-05-14T06:24:08.574Z,14.64
2023-05-14T06:26:38.468Z,14.94
2023-05-14T06:29:08.550Z,15.02
2023-05-14T06:31:38.547Z,14.90
2023-05-14T06:34:09.364Z,14.84
2023-05-14T06:36:39.281Z,14.84
2023-05-14T06:39:12.646Z,14.88
2023-05-14T06:41:42.564Z,14.98
2023-05-14T06:44:17.624Z,15.22
2023-05-14T06:46:47.541Z,15.13
2023-05-14T06:49:17.524Z,15.20
2023-05-14T06:51:47.923Z,15.07
2023-05-14T06:54:20.642Z,15.00
2023-05-14T06:56:50.771Z,15.13
2023-05-14T06:59:20.754Z,15.15
2023-05-14T07:01:50.794Z,15.06
2023-05-14T07:04:20.819Z,15.12
2023-05-14T07:06:50.924Z,14.87
2023-05-14T07:09:23.425Z,14.73
2023-05-14T07:11:53.407Z,14.86
2023-05-14T07:14:23.401Z,14.97
2023-05-14T07:16:53.375Z,15.07
2023-05-14T07:19:23.338Z,15.18
2023-05-14T07:21:53.243Z,15.17
2023-05-14T07:24:26.084Z,15.33
2023-05-14T07:26:57.413Z,15.39
2023-05-14T07:29:28.455Z,15.36
2023-05-14T07:31:58.422Z,15.26
2023-05-14T07:34:28.382Z,15.32
2023-05-14T07:36:58.750Z,15.35
2023-05-14T07:39:31.417Z,15.20
2023-05-14T07:42:01.329Z,15.21
2023-05-14T07:44:31.296Z,15.14
2023-05-14T07:47:01.361Z,15.19
2023-05-14T07:49:31.325Z,15.27
2023-05-14T07:52:01.231Z,15.30
2023-05-14T07:54:33.731Z,15.34
2023-05-14T07:57:03.677Z,15.22
2023-05-14T07:59:33.682Z,15.49
2023-05-14T08:02:03.675Z,15.72
2023-05-14T08:04:33.898Z,15.90
2023-05-14T08:07:04.092Z,15.70
2023-05-14T08:09:36.709Z,15.91
2023-05-14T08:12:07.697Z,16.05
2023-05-14T08:14:37.706Z,15.96
2023-05-14T08:17:07.897Z,15.76
2023-05-14T08:19:37.981Z,15.73
2023-05-14T08:22:08.254Z,15.90
2023-05-14T08:24:42.968Z,16.06
2023-05-14T08:27:12.904Z,16.18
2023-05-14T08:29:42.935Z,16.21
2023-05-14T08:32:22.869Z,16.38
2023-05-14T08:34:54.124Z,16.25
2023-05-14T08:37:24.161Z,16.25
2023-05-14T08:39:56.744Z,16.17
2023-05-14T08:42:28.568Z,16.52
2023-05-14T08:45:04.487Z,16.80
2023-05-14T08:47:34.943Z,17.07
2023-05-14T08:50:07.516Z,17.22
2023-05-14T08:52:38.200Z,17.27
2023-05-14T08:55:12.589Z,17.54
2023-05-14T08:57:42.917Z,17.72
2023-05-14T09:00:15.562Z,17.82
2023-05-14T09:02:49.357Z,17.83
2023-05-14T09:05:21.783Z,18.11
2023-05-14T09:07:51.789Z,17.87
2023-05-14T09:10:24.705Z,17.95
2023-05-14T09:12:55.006Z,18.33
2023-05-14T09:15:26.246Z,18.50
2023-05-14T09:17:56.904Z,18.44
2023-05-14T09:20:28.819Z,18.47
2023-05-14T09:23:00.130Z,18.58
2023-05-14T09:25:34.761Z,18.52
2023-05-14T09:28:09.977Z,18.72
2023-05-14T09:30:40.786Z,18.94
2023-05-14T09:33:11.036Z,18.90
2023-05-14T09:35:43.519Z,19.02
2023-05-14T09:38:14.444Z,18.85
2023-05-14T09:40:48.700Z,19.10
2023-05-14T09:43:18.805Z,19.24
2023-05-14T09:45:48.768Z,19.62
2023-05-14T09:48:19.111Z,19.66
2023-05-14T09:50:49.922Z,20.11
2023-05-14T09:53:20.023Z,20.27
2023-05-14T09:55:52.554Z,20.58
2023-05-14T09:58:22.636Z,20.48
2023-05-14T10:00:54.636Z,19.67
2023-05-14T10:03:28.734Z,19.99
2023-05-14T10:06:03.772Z,20.29
2023-05-14T10:08:37.545Z,20.01
2023-05-14T10:11:18.196Z,19.93
2023-05-14T10:13:56.984Z,20.04
2023-05-14T10:16:31.993Z,19.55
2023-05-14T10:19:09.025Z,19.57
2023-05-14T10:21:41.285Z,20.24
2023-05-14T10:24:13.727Z,19.88
2023-05-14T10:26:46.526Z,19.34
2023-05-14T10:29:16.475Z,19.34
2023-05-14T10:31:49.755Z,19.03
2023-05-14T10:34:37.387Z,19.96
2023-05-14T10:37:10.173Z,20.26
2023-05-14T10:39:45.192Z,19.88
2023-05-14T10:42:20.913Z,20.26
2023-05-14T10:44:56.139Z,19.60
2023-05-14T10:47:26.252Z,19.86
2023-05-14T10:49:59.208Z,20.09
2023-05-14T10:52:29.686Z,20.47
2023-05-14T10:55:03.493Z,20.95
2023-05-14T10:57:40.741Z,20.53
2023-05-14T11:00:12.711Z,20.48
2023-05-14T11:05:17.818Z,19.94
2023-05-14T11:07:50.452Z,20.63
2023-05-14T11:10:23.379Z,20.30
2023-05-14T11:12:56.264Z,20.72
2023-05-14T11:15:29.253Z,21.31
2023-05-14T11:17:59.780Z,21.20
2023-05-14T11:20:29.872Z,21.20
2023-05-14T11:23:00.516Z,21.68
2023-05-14T11:25:30.819Z,21.28
2023-05-14T11:28:03.511Z,21.84
2023-05-14T11:30:34.426Z,22.08
2023-05-14T11:33:04.788Z,22.33
2023-05-14T11:35:35.071Z,22.02
2023-05-14T11:38:06.426Z,21.91
2023-05-14T11:40:37.484Z,22.09
2023-05-14T11:43:10.557Z,21.88
2023-05-14T11:45:40.817Z,22.19
2023-05-14T11:48:18.206Z,22.27
2023-05-14T11:50:49.868Z,21.38
2023-05-14T11:53:21.906Z,22.04
2023-05-14T11:55:52.175Z,22.58
2023-05-14T11:58:25.228Z,23.12
2023-05-14T12:00:58.402Z,22.78
2023-05-14T12:03:30.738Z,23.51
2023-05-14T12:06:02.889Z,23.17
2023-05-14T12:08:34.509Z,23.35
2023-05-14T12:11:05.196Z,23.43
2023-05-14T12:13:40.125Z,23.54
2023-05-14T12:16:10.388Z,23.60
2023-05-14T12:18:40.825Z,23.78
2023-05-14T12:21:12.232Z,24.38
2023-05-14T12:23:42.649Z,23.52
2023-05-14T12:26:12.816Z,24.77
2023-05-14T12:28:45.617Z,24.95
2023-05-14T12:31:15.663Z,24.46
2023-05-14T12:33:45.981Z,24.55
2023-05-14T12:36:21.938Z,24.28
2023-05-14T12:38:53.446Z,24.78
2023-05-14T12:41:23.554Z,23.77
2023-05-14T12:43:56.305Z,23.87
2023-05-14T12:46:26.453Z,23.61
2023-05-14T12:48:57.025Z,23.98
2023-05-14T12:51:27.231Z,24.69
2023-05-14T12:53:57.194Z,26.13
2023-05-14T12:56:28.544Z,26.05
2023-05-14T12:59:01.281Z,25.60
2023-05-14T13:01:31.321Z,25.01
2023-05-14T13:04:01.422Z,25.99
2023-05-14T13:06:31.857Z,24.71
2023-05-14T13:09:02.601Z,26.91
2023-05-14T13:11:32.607Z,25.30
2023-05-14T13:14:05.521Z,25.81
2023-05-14T13:16:35.603Z,26.70
2023-05-14T13:19:05.701Z,27.73
2023-05-14T13:21:35.799Z,28.65
2023-05-14T13:24:05.885Z,26.24
2023-05-14T13:26:35.993Z,26.34
2023-05-14T13:29:08.538Z,25.65
2023-05-14T13:31:38.597Z,24.45
2023-05-14T13:34:09.046Z,24.85
2023-05-14T13:36:39.837Z,24.89
2023-05-14T13:39:10.990Z,26.17
2023-05-14T13:41:41.015Z,27.67
2023-05-14T13:44:13.608Z,24.27
2023-05-14T13:46:43.694Z,24.68
2023-05-14T13:49:14.050Z,27.19
2023-05-14T13:51:44.319Z,28.74
2023-05-14T13:54:14.636Z,28.05
2023-05-14T13:56:44.640Z,30.64
2023-05-14T13:59:17.550Z,31.38
2023-05-14T14:01:48.286Z,30.74
2023-05-14T14:04:20.075Z,29.88
2023-05-14T14:06:50.080Z,29.73
2023-05-14T14:09:20.002Z,31.38
2023-05-14T14:11:50.875Z,30.78
2023-05-14T14:14:23.418Z,31.47
2023-05-14T14:16:53.301Z,33.35
2023-05-14T14:19:23.982Z,32.95
2023-05-14T14:21:54.156Z,31.67
2023-05-14T14:24:24.042Z,35.71
2023-05-14T14:26:53.987Z,35.38
2023-05-14T14:29:26.574Z,32.93
2023-05-14T14:31:57.185Z,30.41
2023-05-14T14:34:27.240Z,30.12
2023-05-14T14:36:57.276Z,28.36
2023-05-14T14:39:27.404Z,27.44
2023-05-14T14:41:57.777Z,26.71
2023-05-14T14:44:30.412Z,28.96
2023-05-14T14:47:00.441Z,27.88
2023-05-14T14:49:31.472Z,26.38
2023-05-14T14:52:01.471Z,25.62
2023-05-14T14:54:31.427Z,25.08
2023-05-14T14:57:01.399Z,27.04
2023-05-14T14:59:33.998Z,33.71
2023-05-14T15:02:03.955Z,27.57
2023-05-14T15:04:34.935Z,25.54
2023-05-14T15:07:05.020Z,25.13
2023-05-14T15:09:35.344Z,24.92
2023-05-14T15:12:05.437Z,24.17
2023-05-14T15:14:38.146Z,24.89
2023-05-14T15:17:08.235Z,30.83
2023-05-14T15:19:38.281Z,35.96
2023-05-14T15:22:08.377Z,35.91
2023-05-14T15:24:38.466Z,35.63
2023-05-14T15:27:08.894Z,35.16
2023-05-14T15:29:41.583Z,38.76
2023-05-14T15:32:11.770Z,35.72
2023-05-14T15:34:42.038Z,35.93
2023-05-14T15:37:11.989Z,35.95
2023-05-14T15:39:41.909Z,35.19
2023-05-14T15:42:12.075Z,36.41
2023-05-14T15:44:44.729Z,36.52
2023-05-14T15:47:14.823Z,36.21
2023-05-14T15:49:44.785Z,31.81
2023-05-14T15:52:14.916Z,29.37
2023-05-14T15:54:45.032Z,28.14
2023-05-14T15:57:15.432Z,26.85
2023-05-14T15:59:49.890Z,26.86
2023-05-14T16:02:20.255Z,29.14
2023-05-14T16:04:50.326Z,27.42
2023-05-14T16:07:20.313Z,28.64
2023-05-14T16:09:50.371Z,26.29
2023-05-14T16:12:20.333Z,25.36
2023-05-14T16:14:53.055Z,25.28
2023-05-14T16:17:23.132Z,24.99
2023-05-14T16:19:54.659Z,24.86
2023-05-14T16:22:26.277Z,24.49
2023-05-14T16:24:56.416Z,24.39
2023-05-14T16:27:27.240Z,24.28
2023-05-14T16:29:59.782Z,25.25
2023-05-14T16:32:29.752Z,24.81
2023-05-14T16:35:01.834Z,24.21
2023-05-14T16:37:32.222Z,23.78
2023-05-14T16:40:02.309Z,23.58
2023-05-14T16:42:32.684Z,26.44
2023-05-14T16:45:05.217Z,28.45
2023-05-14T16:47:36.052Z,29.30
2023-05-14T16:50:06.342Z,29.14
2023-05-14T16:52:36.652Z,28.90
2023-05-14T16:55:07.270Z,27.08
2023-05-14T16:57:37.328Z,25.51
2023-05-14T17:00:12.006Z,24.93
2023-05-14T17:02:42.110Z,26.66
2023-05-14T17:05:12.804Z,25.88
2023-05-14T17:07:42.814Z,25.42
2023-05-14T17:10:13.487Z,25.79
2023-05-14T17:12:43.518Z,26.91
2023-05-14T17:15:16.556Z,26.81
2023-05-14T17:17:46.650Z,26.58
2023-05-14T17:20:17.152Z,24.77
2023-05-14T17:22:47.409Z,24.00
2023-05-14T17:25:18.215Z,23.76
2023-05-14T17:27:48.162Z,23.61
2023-05-14T17:30:20.793Z,23.12
2023-05-14T17:32:51.322Z,22.98
2023-05-14T17:35:21.453Z,22.96
2023-05-14T17:37:51.493Z,22.87
2023-05-14T17:40:21.582Z,22.67
2023-05-14T17:42:51.579Z,22.36
2023-05-14T17:45:24.504Z,22.18
2023-05-14T17:47:54.867Z,22.04
2023-05-14T17:50:24.828Z,21.99
2023-05-14T17:52:56.719Z,21.78
2023-05-14T17:55:27.039Z,21.73
2023-05-14T17:57:57.050Z,21.60
2023-05-14T18:00:29.569Z,21.47
2023-05-14T18:02:59.622Z,21.35
2023-05-14T18:05:30.049Z,21.23
2023-05-14T18:08:00.541Z,21.08
2023-05-14T18:10:31.737Z,21.02
2023-05-14T18:13:01.942Z,20.88
2023-05-14T18:15:34.868Z,20.98
2023-05-14T18:18:05.087Z,20.71
2023-05-14T18:20:35.680Z,20.55
2023-05-14T18:23:05.752Z,20.52
2023-05-14T18:25:36.075Z,20.33
2023-05-14T18:28:06.270Z,20.12
2023-05-14T18:30:38.892Z,20.27
2023-05-14T18:33:08.902Z,20.25
2023-05-14T18:35:39.017Z,20.08
2023-05-14T18:38:09.125Z,20.15
2023-05-14T18:40:39.467Z,19.80
2023-05-14T18:43:09.441Z,19.57
2023-05-14T18:45:42.041Z,19.59
2023-05-14T18:48:12.815Z,19.37
2023-05-14T18:50:43.224Z,19.35
2023-05-14T18:53:13.226Z,19.48
2023-05-14T18:55:43.318Z,19.40
2023-05-14T18:58:14.581Z,19.14
2023-05-14T19:00:47.214Z,19.11
2023-05-14T19:03:17.452Z,19.12
2023-05-14T19:05:47.609Z,19.12
2023-05-14T19:08:18.648Z,18.95
2023-05-14T19:10:48.684Z,18.98
2023-05-14T19:13:18.754Z,18.85
2023-05-14T19:15:51.746Z,18.81
2023-05-14T19:18:21.785Z,18.80
2023-05-14T19:20:52.112Z,18.71
2023-05-14T19:23:22.175Z,18.65
2023-05-14T19:25:52.335Z,18.57
2023-05-14T19:28:22.725Z,18.56
2023-05-14T19:30:57.376Z,18.39
2023-05-14T19:33:28.134Z,18.26
2023-05-14T19:35:58.943Z,18.06
2023-05-14T19:38:29.792Z,18.01
2023-05-14T19:40:59.869Z,17.96
2023-05-14T19:43:29.874Z,17.77
2023-05-14T19:46:03.363Z,17.81
2023-05-14T19:48:33.925Z,17.53
2023-05-14T19:51:04.230Z,17.51
2023-05-14T19:53:34.386Z,17.33
2023-05-14T19:56:04.857Z,17.29
2023-05-14T19:58:35.077Z,17.33
2023-05-14T20:01:08.048Z,17.15
2023-05-14T20:03:38.190Z,17.16
2023-05-14T20:06:08.557Z,17.12
2023-05-14T20:08:38.696Z,17.03
2023-05-14T20:11:08.874Z,16.96
2023-05-14T20:13:39.071Z,16.86
2023-05-14T20:16:13.771Z,16.92
2023-05-14T20:18:44.239Z,16.80
2023-05-14T20:21:15.010Z,16.63
2023-05-14T20:23:45.275Z,16.76
2023-05-14T20:26:15.661Z,16.79
2023-05-14T20:28:46.271Z,16.66
2023-05-14T20:31:19.423Z,16.60
2023-05-14T20:33:49.816Z,16.54
2023-05-14T20:36:20.183Z,16.52
2023-05-14T20:38:50.515Z,16.41
2023-05-14T20:41:21.194Z,16.52
2023-05-14T20:43:51.484Z,16.49
2023-05-14T20:46:24.465Z,16.48
2023-05-14T20:48:57.243Z,16.40
2023-05-14T20:51:27.688Z,16.05
2023-05-14T20:53:58.165Z,16.19
2023-05-14T20:56:29.152Z,16.32
2023-05-14T20:58:59.454Z,16.33
2023-05-14T21:01:32.315Z,16.26
2023-05-14T21:04:02.757Z,16.17
2023-05-14T21:06:33.208Z,16.16
2023-05-14T21:09:03.498Z,16.10
2023-05-14T21:11:33.782Z,16.02
2023-05-14T21:14:03.991Z,16.00
2023-05-14T21:16:37.141Z,16.04
2023-05-14T21:19:07.664Z,16.08
2023-05-14T21:21:38.232Z,15.86
2023-05-14T21:24:09.148Z,15.89
2023-05-14T21:26:41.550Z,15.91
2023-05-14T21:29:11.842Z,15.77
2023-05-14T21:31:44.894Z,15.81
2023-05-14T21:34:15.013Z,15.90
2023-05-14T21:36:45.220Z,15.67
2023-05-14T21:39:15.399Z,15.70
2023-05-14T21:41:45.382Z,15.85
2023-05-14T21:44:15.507Z,15.66
2023-05-14T21:46:48.113Z,15.62
2023-05-14T21:49:18.032Z,15.51
2023-05-14T21:51:53.041Z,15.54
2023-05-14T21:54:23.008Z,15.50
2023-05-14T21:56:53.018Z,15.64
2023-05-14T21:59:22.939Z,15.61
2023-05-14T22:02:06.927Z,15.60
2023-05-14T22:04:37.953Z,15.92
2023-05-14T22:07:07.958Z,15.99
2023-05-14T22:09:37.856Z,15.94
2023-05-14T22:12:08.915Z,15.92
2023-05-14T22:14:38.899Z,15.90
2023-05-14T22:17:11.863Z,15.75
2023-05-14T22:19:41.803Z,15.67
2023-05-14T22:22:11.705Z,15.64
2023-05-14T22:24:41.616Z,15.58
2023-05-14T22:27:11.745Z,15.74
2023-05-14T22:29:41.745Z,15.66
2023-05-14T22:32:14.232Z,15.63
2023-05-14T22:34:44.381Z,15.66
2023-05-14T22:37:14.267Z,15.59
2023-05-14T22:39:44.294Z,15.40
2023-05-14T22:42:14.190Z,15.29
2023-05-14T22:44:44.121Z,15.18
2023-05-14T22:47:16.673Z,15.20
2023-05-14T22:49:46.586Z,15.10
2023-05-14T22:52:16.483Z,15.10
2023-05-14T22:54:46.765Z,15.07
2023-05-14T22:57:16.802Z,15.04
2023-05-14T22:59:46.776Z,15.07
2023-05-14T23:02:19.642Z,15.15
2023-05-14T23:04:49.633Z,15.10
2023-05-14T23:07:19.824Z,14.75
2023-05-14T23:09:49.777Z,14.46
2023-05-14T23:12:19.696Z,14.58
2023-05-14T23:14:49.669Z,14.65
2023-05-14T23:17:22.486Z,14.46
2023-05-14T23:19:52.559Z,14.68
2023-05-14T23:22:22.594Z,14.33
2023-05-14T23:24:52.571Z,14.15
2023-05-14T23:27:22.606Z,14.03
2023-05-14T23:29:52.579Z,13.99
2023-05-14T23:32:25.709Z,13.96
2023-05-14T23:34:55.766Z,13.88
2023-05-14T23:37:26.236Z,14.31
2023-05-14T23:39:56.391Z,14.42
2023-05-14T23:42:26.320Z,14.37
2023-05-14T23:44:56.183Z,14.43
2023-05-14T23:47:28.792Z,14.45
2023-05-14T23:49:58.721Z,14.32
2023-05-14T23:52:28.631Z,14.44
2023-05-14T23:54:58.525Z,14.47
2023-05-14T23:57:28.807Z,14.55
2023-05-14T23:59:58.906Z,14.52
